Time;durP1;ratioP1;P1;durP2;ratioP2;P2;SDS_P1;SDS_P2;PMS_P1;PMS_P2;Temp;Humidity;BMP_temperature;BMP_pressure;BME280_temperature;BME280_humidity;BME280_pressure;Samples;Min_cycle;Max_cycle;Signal;HPM_P1;HPM_P2
2022/03/19 12:28:04;;;;;;;4.63;2.55;;;10.30;99.90;;;;;;5070595;28;20542;-80
2022/03/19 12:30:30;;;;;;;5.93;2.13;;;10.40;99.90;;;;;;5070662;28;20176;-81
2022/03/19 12:32:57;;;;;;;4.30;2.13;;;10.40;99.90;;;;;;5069330;28;20191;-81
2022/03/19 12:35:40;;;;;;;1.67;1.60;;;10.40;99.90;;;;;;5070581;28;20187;-79
2022/03/19 12:38:06;;;;;;;3.35;1.90;;;10.40;99.90;;;;;;5070501;28;20247;-79
2022/03/19 12:43:19;;;;;;;2.75;1.98;;;10.50;99.90;;;;;;5070438;28;20579;-79
2022/03/19 12:45:51;;;;;;;2.53;1.90;;;10.60;99.90;;;;;;5070203;28;20469;-79
2022/03/19 12:48:19;;;;;;;5.07;1.73;;;10.70;99.90;;;;;;5070313;28;20171;-79
2022/03/19 12:50:53;;;;;;;1.95;1.77;;;10.80;99.90;;;;;;5070170;28;20200;-79
2022/03/19 12:53:33;;;;;;;3.08;1.80;;;10.90;99.90;;;;;;5070080;28;20216;-79
2022/03/19 12:56:19;;;;;;;2.35;1.80;;;11.00;99.90;;;;;;5070132;28;20164;-79
2022/03/19 12:58:47;;;;;;;4.63;1.60;;;11.10;99.90;;;;;;5068807;28;20203;-79
2022/03/19 13:01:14;;;;;;;2.40;2.20;;;11.30;99.90;;;;;;5070029;28;20218;-79
2022/03/19 13:03:41;;;;;;;1.73;1.60;;;11.40;99.90;;;;;;5070259;28;20180;-79
2022/03/19 13:06:07;;;;;;;3.40;1.67;;;11.50;99.90;;;;;;5069545;28;20275;-79
2022/03/19 13:08:49;;;;;;;1.70;1.60;;;11.60;99.90;;;;;;5069604;28;20164;-83
2022/03/19 13:11:16;;;;;;;2.53;1.88;;;11.70;99.90;;;;;;5069842;28;20161;-82
2022/03/19 13:13:45;;;;;;;3.13;1.83;;;11.70;99.90;;;;;;5069799;28;20169;-79
2022/03/19 13:16:12;;;;;;;6.03;1.98;;;11.80;99.90;;;;;;5068408;28;20258;-79
2022/03/19 13:18:41;;;;;;;4.65;1.67;;;11.80;99.90;;;;;;5069673;28;20169;-79
2022/03/19 13:21:11;;;;;;;4.53;1.80;;;11.70;99.90;;;;;;5069667;28;20168;-79
2022/03/19 13:23:39;;;;;;;2.05;1.73;;;12.00;99.90;;;;;;5069508;28;20665;-79
2022/03/19 13:26:05;;;;;;;1.73;1.60;;;12.00;99.90;;;;;;5069253;28;20242;-79
2022/03/19 13:28:31;;;;;;;3.63;2.00;;;12.10;99.90;;;;;;5069272;28;20660;-79
2022/03/19 13:30:58;;;;;;;3.90;2.10;;;12.20;99.90;;;;;;5069212;28;20570;-79
2022/03/19 13:33:27;;;;;;;6.20;2.40;;;12.30;99.90;;;;;;5067928;28;20662;-79
2022/03/19 13:35:53;;;;;;;2.40;1.83;;;12.40;99.90;;;;;;5069204;28;20171;-79
2022/03/19 13:38:23;;;;;;;2.15;1.60;;;12.50;99.90;;;;;;5062142;28;20161;-79
2022/03/19 13:40:52;;;;;;;1.60;1.60;;;12.60;99.90;;;;;;5054684;28;20173;-79
2022/03/19 13:43:41;;;;;;;1.60;1.50;;;12.60;99.90;;;;;;5055941;28;20169;-79
2022/03/19 13:46:15;;;;;;;2.33;1.92;;;12.60;99.90;;;;;;5055868;28;20193;-79
2022/03/19 13:48:41;;;;;;;2.17;1.52;;;12.70;99.90;;;;;;5054422;28;20196;-79
2022/03/19 13:51:07;;;;;;;4.10;1.58;;;12.90;99.90;;;;;;5055837;28;20173;-79
2022/03/19 13:53:45;;;;;;;2.47;1.60;;;13.10;99.90;;;;;;5055608;28;20706;-79
2022/03/19 13:56:11;;;;;;;6.28;1.52;;;13.00;99.90;;;;;;5055692;28;20657;-79
2022/03/19 13:58:38;;;;;;;2.08;1.65;;;13.10;99.90;;;;;;5055561;28;20169;-79
2022/03/19 14:01:16;;;;;;;2.67;1.80;;;13.10;99.90;;;;;;5055654;28;20248;-79
2022/03/19 14:03:42;;;;;;;2.17;1.65;;;13.10;99.90;;;;;;5055488;28;20173;-79
2022/03/19 14:06:09;;;;;;;2.00;1.55;;;13.20;99.90;;;;;;5054155;28;20208;-79
2022/03/19 14:08:38;;;;;;;4.50;1.77;;;13.30;99.90;;;;;;5055382;28;20172;-79
2022/03/19 14:11:13;;;;;;;2.70;1.50;;;13.40;99.90;;;;;;5055195;28;20239;-79
2022/03/19 14:13:43;;;;;;;1.80;1.70;;;13.40;99.90;;;;;;5055408;28;20252;-79
2022/03/19 14:16:14;;;;;;;2.20;1.50;;;13.50;99.90;;;;;;5055190;28;20161;-79
2022/03/19 14:18:41;;;;;;;2.28;1.95;;;13.60;99.90;;;;;;5055197;28;20223;-79
2022/03/19 14:21:08;;;;;;;3.35;2.10;;;13.70;99.90;;;;;;5053819;28;20175;-79
2022/03/19 14:23:38;;;;;;;3.63;1.55;;;13.70;99.90;;;;;;5053846;28;20596;-79
2022/03/19 14:26:05;;;;;;;1.77;1.65;;;13.70;99.90;;;;;;5054970;28;20323;-79
2022/03/19 14:28:31;;;;;;;6.30;1.90;;;13.70;99.90;;;;;;5055097;28;20181;-79
2022/03/19 14:30:57;;;;;;;5.90;1.88;;;13.80;99.90;;;;;;5054928;28;20615;-79
2022/03/19 14:33:24;;;;;;;3.72;2.20;;;13.80;99.90;;;;;;5054989;28;20256;-79
2022/03/19 14:35:52;;;;;;;3.33;2.20;;;13.80;99.90;;;;;;5054954;28;20197;-79
2022/03/19 14:38:25;;;;;;;3.42;2.63;;;13.70;99.90;;;;;;5054789;28;20204;-79
2022/03/19 14:40:52;;;;;;;2.67;2.47;;;13.60;99.90;;;;;;5054769;28;20168;-79
2022/03/19 14:43:19;;;;;;;3.05;2.22;;;13.70;99.90;;;;;;5054648;28;20275;-79
2022/03/19 14:45:51;;;;;;;2.67;2.55;;;13.70;99.90;;;;;;5054463;28;20184;-79
2022/03/19 14:48:18;;;;;;;4.85;2.83;;;13.60;99.90;;;;;;5054636;28;20698;-79
2022/03/19 14:50:46;;;;;;;5.75;2.60;;;13.60;99.90;;;;;;5053524;28;20697;-79
2022/03/19 14:53:11;;;;;;;2.67;2.40;;;13.60;99.90;;;;;;5054447;28;20187;-79
2022/03/19 14:55:38;;;;;;;2.47;2.35;;;13.70;99.90;;;;;;5054351;28;20173;-79
2022/03/19 14:58:03;;;;;;;2.85;2.65;;;13.60;99.90;;;;;;5054377;28;20572;-79
2022/03/19 15:00:29;;;;;;;4.53;2.85;;;13.50;99.90;;;;;;5054310;28;20260;-79
2022/03/19 15:02:56;;;;;;;3.50;2.78;;;13.20;99.90;;;;;;5054287;28;20208;-79
2022/03/19 15:05:22;;;;;;;2.85;2.65;;;13.00;99.90;;;;;;5054270;28;20165;-79
2022/03/19 15:07:47;;;;;;;3.35;2.97;;;12.90;99.90;;;;;;5054157;28;20200;-79
2022/03/19 15:10:13;;;;;;;2.60;2.00;;;12.80;99.90;;;;;;5052928;28;20169;-79
2022/03/19 15:12:39;;;;;;;2.97;2.35;;;12.50;99.90;;;;;;5054103;28;20165;-79
2022/03/19 15:15:07;;;;;;;4.97;2.13;;;12.40;99.90;;;;;;5054151;28;20252;-79
2022/03/19 15:17:33;;;;;;;2.17;1.95;;;12.20;99.90;;;;;;5054041;28;20646;-80
2022/03/19 15:19:59;;;;;;;2.08;1.88;;;12.00;99.90;;;;;;5054139;28;20173;-79
2022/03/19 15:22:25;;;;;;;2.45;1.92;;;12.00;99.90;;;;;;5053888;28;20244;-79
2022/03/19 15:24:50;;;;;;;3.55;2.00;;;12.10;99.90;;;;;;5052665;28;20572;-80
2022/03/19 15:27:16;;;;;;;3.72;1.85;;;12.30;99.90;;;;;;5052287;28;20228;-79
2022/03/19 15:29:42;;;;;;;3.97;2.55;;;12.60;99.90;;;;;;5053795;28;20161;-80
2022/03/19 15:32:08;;;;;;;2.25;2.13;;;12.60;99.90;;;;;;5053637;28;20165;-79
2022/03/19 15:34:33;;;;;;;2.58;1.83;;;12.50;99.90;;;;;;5053701;28;20169;-80
2022/03/19 15:36:59;;;;;;;3.65;1.65;;;12.30;99.90;;;;;;5053716;28;20173;-79
2022/03/19 15:39:24;;;;;;;1.50;1.40;;;12.20;99.90;;;;;;5053673;28;20212;-79
2022/03/19 15:41:50;;;;;;;1.92;1.75;;;12.30;99.90;;;;;;5053476;28;20173;-72
2022/03/19 15:44:16;;;;;;;1.80;1.70;;;12.30;99.90;;;;;;5053648;28;20173;-73
2022/03/19 15:46:41;;;;;;;3.33;1.60;;;12.30;99.90;;;;;;5053490;28;20208;-74
2022/03/19 15:49:09;;;;;;;6.47;2.03;;;12.40;99.90;;;;;;5053384;28;20172;-73
2022/03/19 15:51:36;;;;;;;3.22;1.40;;;12.20;99.90;;;;;;5053443;28;20172;-73
2022/03/19 15:54:02;;;;;;;2.97;1.45;;;12.20;99.90;;;;;;5053301;28;20188;-73
2022/03/19 15:56:28;;;;;;;2.58;1.60;;;11.90;99.90;;;;;;5053276;28;20173;-73
2022/03/19 15:58:55;;;;;;;2.38;1.30;;;11.80;99.90;;;;;;5053381;28;20175;-72
2022/03/19 16:01:22;;;;;;;1.90;1.65;;;11.50;99.90;;;;;;5053032;28;20511;-74
2022/03/19 16:03:48;;;;;;;2.63;1.60;;;11.30;99.90;;;;;;5053336;28;20169;-71
2022/03/19 16:06:13;;;;;;;3.67;1.52;;;11.30;99.90;;;;;;5053303;28;20219;-70
2022/03/19 16:08:39;;;;;;;5.20;2.60;;;11.30;99.90;;;;;;5053330;28;20165;-71
2022/03/19 16:11:05;;;;;;;4.25;1.60;;;11.30;99.90;;;;;;5053302;28;20162;-70
2022/03/19 16:13:30;;;;;;;2.70;1.30;;;11.30;99.90;;;;;;5052039;28;20631;-71
2022/03/19 16:15:56;;;;;;;2.67;1.40;;;11.50;99.90;;;;;;5053239;28;20158;-71
2022/03/19 16:18:22;;;;;;;3.17;1.73;;;11.70;99.90;;;;;;5053206;28;20200;-71
2022/03/19 16:20:48;;;;;;;3.00;1.58;;;11.80;99.90;;;;;;5053168;28;20177;-72
2022/03/19 16:23:13;;;;;;;2.83;1.70;;;12.00;99.90;;;;;;5053201;28;20177;-72
2022/03/19 16:25:39;;;;;;;2.75;2.55;;;12.00;99.90;;;;;;5052927;28;20177;-71
2022/03/19 16:28:05;;;;;;;4.35;1.73;;;12.00;99.90;;;;;;5053103;28;20209;-71
2022/03/19 16:30:31;;;;;;;2.63;1.60;;;12.10;99.90;;;;;;5053123;28;20524;-71
2022/03/19 16:32:57;;;;;;;3.85;1.70;;;12.00;99.90;;;;;;5053121;28;20175;-71
2022/03/19 16:35:23;;;;;;;3.38;1.95;;;11.80;99.90;;;;;;5053093;28;20251;-71
2022/03/19 16:37:50;;;;;;;3.80;2.40;;;11.50;99.90;;;;;;5053094;28;20251;-71
2022/03/19 16:40:16;;;;;;;1.88;1.75;;;11.30;99.90;;;;;;5052955;28;20169;-71
2022/03/19 16:42:42;;;;;;;3.40;1.83;;;11.10;99.90;;;;;;5053063;28;20651;-71
2022/03/19 16:45:08;;;;;;;3.28;1.60;;;11.00;99.90;;;;;;5053020;28;20188;-71
2022/03/19 16:47:34;;;;;;;4.50;1.60;;;10.90;99.90;;;;;;5052780;28;20724;-71
2022/03/19 16:49:59;;;;;;;3.47;1.40;;;11.00;99.90;;;;;;5051682;28;20264;-71
2022/03/19 16:52:28;;;;;;;3.80;2.17;;;10.90;99.90;;;;;;5052800;28;20180;-71
2022/03/19 16:54:53;;;;;;;3.78;1.83;;;10.90;99.90;;;;;;5052879;28;20160;-71
2022/03/19 16:57:19;;;;;;;3.30;1.92;;;10.70;99.90;;;;;;5052902;28;20173;-71
2022/03/19 16:59:45;;;;;;;1.92;1.60;;;10.70;99.90;;;;;;5052714;28;20169;-71
2022/03/19 17:02:10;;;;;;;3.15;1.90;;;10.50;99.90;;;;;;5052652;28;20176;-71
2022/03/19 17:04:36;;;;;;;6.25;1.92;;;10.50;99.90;;;;;;5052831;28;20570;-73
2022/03/19 17:07:03;;;;;;;1.90;1.80;;;10.40;99.90;;;;;;5052621;28;20228;-75
2022/03/19 17:09:32;;;;;;;3.22;1.70;;;10.30;99.90;;;;;;5051465;28;20623;-76
2022/03/19 17:11:59;;;;;;;3.00;2.35;;;10.20;99.90;;;;;;5052701;28;20546;-76
2022/03/19 17:14:25;;;;;;;1.92;1.83;;;10.10;99.90;;;;;;5055713;28;20176;-75
2022/03/19 17:16:51;;;;;;;2.17;1.85;;;10.00;99.90;;;;;;5055091;28;20662;-75
2022/03/19 17:19:17;;;;;;;2.83;1.70;;;9.90;99.90;;;;;;5056448;28;20189;-75
2022/03/19 17:21:43;;;;;;;3.55;1.70;;;9.80;99.90;;;;;;5056341;28;20178;-75
2022/03/19 17:24:09;;;;;;;3.10;2.10;;;9.60;99.90;;;;;;5056367;28;20223;-75
2022/03/19 17:26:34;;;;;;;2.78;1.85;;;9.50;99.90;;;;;;5056081;28;20619;-75
2022/03/19 17:29:00;;;;;;;2.10;1.85;;;9.30;99.90;;;;;;5056429;28;20176;-75
2022/03/19 17:31:26;;;;;;;2.75;1.95;;;9.10;99.90;;;;;;5056273;28;20203;-74
2022/03/19 17:33:51;;;;;;;3.63;2.75;;;8.90;99.90;;;;;;5055772;28;20279;-74
2022/03/19 17:36:17;;;;;;;3.60;1.77;;;8.70;99.90;;;;;;5055575;28;20205;-74
2022/03/19 17:38:42;;;;;;;6.25;2.13;;;8.50;99.90;;;;;;5055797;28;20177;-74
2022/03/19 17:41:08;;;;;;;1.77;1.65;;;9.90;99.90;;;;;;5055961;28;20169;-74
2022/03/19 17:43:35;;;;;;;1.88;1.77;;;8.20;99.90;;;;;;5055922;28;20173;-74
2022/03/19 17:46:01;;;;;;;4.50;2.20;;;8.10;99.90;;;;;;5055702;28;20165;-74
2022/03/19 17:48:26;;;;;;;5.25;1.83;;;8.00;99.90;;;;;;5055714;28;20172;-74
2022/03/19 17:50:52;;;;;;;2.22;2.05;;;7.80;99.90;;;;;;5055766;28;20165;-74
2022/03/19 17:53:18;;;;;;;3.28;2.60;;;7.70;99.90;;;;;;5055787;28;20185;-74
